Cisco Butte, California Weather observations

Data are for observation ending at time listed.
 Day   Time    Ave.   Ave.  Ave.  Vector   Max.   Stn.    Total    Solar   Ave.   Snow 
  of    of     Air    Rel.  Wind   Wind    Wind   Baro.  Precip.   Rad.    Soil   Depth
Year   Day     Temp.  Hum.  Speed  Dir.    Gust   Pres.                    Temp.       
2016   (PST)    F      %     mph   deg.    mph     mb.     in.     W/m2     F      in. 
---------------------------------------------------------------------------------------  
 270   11:50   74.1    14   10.1   280     16.1   830.0    0.00     485    -14710.0   80.4
 270   12:00   74.2    14    8.5   255     18.6   830.0    0.00     485    -14710.0   80.3
 270   12:10   74.5    14    9.3   284     16.0   830.0    0.00     484    -14710.0   80.3
 270   12:20   74.8    14   10.8   277     20.0   830.0    0.00     482    -14710.0   80.3
 270   12:30   74.5    14   10.1   283     14.6   830.0    0.00     479    -14710.0   80.3
 270   12:40   74.7    14   11.4   287     18.4   830.0    0.00     474    -14710.0   80.3
 270   12:50   74.8    15   11.2   273     16.9   830.0    0.00     470    -14710.0   80.3
 270   13:00   74.6    15   10.7   284     16.4   830.0    0.00     463    -14710.0   80.3
 270   13:10   74.8    15   10.9   271     17.8   830.0    0.00     455    -14710.0   80.2
 270   13:20   74.9    15   11.6   283     19.1   830.0    0.00     447    -14710.0   80.4
 270   13:30   74.7    16   12.2   280     17.2   830.0    0.00     438    -14710.0   80.3
 270   13:40   74.9    16   11.8   280     17.2   829.0    0.00     427    -14710.0   80.3
 270   13:50   74.9    16   11.4   276     16.3   829.0    0.00     415    -14710.0   80.3
 270   14:00   74.7    16   11.3   277     18.9   829.0    0.00     403    -14710.0   72.1
 270   14:10   75.6    16    8.9   257     15.3   829.0    0.00     389    -14710.0   80.2
 270   14:20   75.8    15   10.0   260     16.7   829.0    0.00     374    -14710.0   80.3
 270   14:30   74.9    15    8.1   256     13.2   829.0    0.00     360    -14710.0   80.2
 270   14:40   74.3    15    9.8   283     15.8   829.0    0.00     340    -14710.0   72.2
 270   14:50   74.2    15   11.3   278     17.6   829.0    0.00     324    -14710.0   80.3
 270   15:00   74.5    15   10.7   279     15.6   829.0    0.00     311    -14710.0   80.3
 270   15:10   73.9    15   11.7   282     17.4   829.0    0.00     290    -14710.0   80.4
 270   15:20   74.1    15    9.7   278     13.8   829.0    0.00     275    -14710.0   80.3
 270   15:30   74.6    14    9.4   275     13.7   829.0    0.00     255    -14710.0   80.3
 270   15:40   73.9    15   10.2   280     16.0   829.0    0.00     236    -14710.0   80.4
 270   15:50   74.0    15    8.6   270     16.4   829.0    0.00     215    -14710.0   80.3
 270   16:00   74.3    15    8.2   269     12.6   829.0    0.00     193    -14710.0   80.3
 270   16:10   74.0    15    7.7   272     12.1   829.0    0.00     171    -14710.0   80.3
 270   16:20   73.7    15    7.9   276     13.4   829.0    0.00     153    -14710.0   80.3
 270   16:30   73.8    15    8.6   276     12.8   829.0    0.00     132    -14710.0   80.3
 270   16:40   73.1    17    8.4   281     13.0   828.0    0.00     112    -14710.0   80.3
 270   16:50   73.0    17    9.0   274     13.6   828.0    0.00      93    -14710.0   80.3
 270   17:00   72.5    18    8.6   278     11.8   828.0    0.00      61    -14710.0   80.4
 270   17:10   72.3    19    8.0   279     12.9   828.0    0.00      12    -14710.0   80.3
 270   17:20   71.3    20    8.9   278     12.2   828.0    0.00      35    -14710.0   80.3
 270   17:30   70.9    21    7.7   282     10.9   828.0    0.00      32    -14710.0   80.4
 270   17:40   70.2    22    7.2   280      9.6   828.0    0.00      22    -14710.0   80.4
 270   17:50   69.3    23    6.7   277      8.8   828.0    0.00      12    -14710.0   80.4
 270   18:00   68.1    24    6.8   281      9.3   828.0    0.00       4    -14710.0   80.4
 270   18:10   66.6    26    5.7   274      7.5   828.0    0.00       1    -14710.0   80.3
 270   18:20   65.6    27    4.0   279      5.8   829.0    0.00       0    -14710.0   80.3
 270   18:30   65.1    28    3.7   278      5.3   829.0    0.00       0    -14710.0   80.2
 270   18:40   64.4    28    3.7   280      4.7   829.0    0.00       0    -14710.0   80.3
 270   18:50   64.5    28    2.4   277      3.7   829.0    0.00       0    -14710.0   80.3
 270   19:00   63.8    29    2.5   275      4.5   829.0    0.00       0    -14710.0   80.4
 270   19:10   63.2    30    1.0   269      2.8   829.0    0.00       0    -14710.0   80.4
 270   19:20   63.1    30    0.3   272      1.2   829.0    0.00       0    -14710.0   80.4
 270   19:30   63.7    30    1.6    65      3.0   829.0    0.00       0    -14710.0   80.5
 270   19:40   63.4    30    1.8    80      2.2   829.0    0.00       0    -14710.0   80.5
 270   19:50   62.6    30    3.0    88      5.3   829.0    0.00       0    -14710.0   80.5
 270   20:00   61.1    30    3.7    96      6.0   829.0    0.00       0    -14710.0   80.5
 270   20:10   60.4    31    4.0   106      6.7   829.0    0.00       0    -14710.0   80.5
 270   20:20   59.8    31    4.4   106      7.0   829.0    0.00       0    -14710.0   80.4
 270   20:30   60.1    31    5.2   104      8.9   829.0    0.00       0    -14710.0   80.5
 270   20:40   59.8    31    5.1    99      6.7   829.0    0.00       0    -14710.0   80.4
 270   20:50   59.1    32    5.0    93      8.2   829.0    0.00       0    -14710.0   80.4
 270   21:00   59.0    32    5.4    98      8.3   829.0    0.00       0    -14710.0   80.3
 270   21:10   58.8    32    6.3   103      9.5   829.0    0.00       0    -14710.0   80.1
 270   21:20   58.4    33    6.1   101     10.1   829.0    0.00       0    -14710.0   72.1
 270   21:30   58.3    33    5.2    93      8.8   829.0    0.00       0    -14710.0   72.2
 270   21:40   58.3    33    5.5   101      9.3   829.0    0.00       0    -14710.0   79.8
 270   21:50   58.0    34    4.7    82      8.0   829.0    0.00       0    -14710.0   72.6
 270   22:00   58.2    33    4.9    92      8.3   829.0    0.00       0    -14710.0   80.2
 270   22:10   57.8    34    4.9   100      7.2   829.0    0.00       0    -14710.0   80.2
 270   22:20   56.8    35    5.5   106      9.4   829.0    0.00       0    -14710.0   72.2
 270   22:30   56.9    34    7.2   110     11.0   829.0    0.00       0    -14710.0   79.8
 270   22:40   56.8    35    8.2   112     11.9   829.0    0.00       0    -14710.0   64.5
 270   22:50   56.9    34    8.4   115     11.6   829.0    0.00       0    -14710.0   48.0
 270   23:00   57.9    33    8.6   109     11.2   829.0    0.00       0    -14710.0   72.2
 270   23:10   57.8    32    7.7   111     10.4   829.0    0.00       0    -14710.0   72.1
 270   23:20   56.9    33    8.1   111     11.5   829.0    0.00       0    -14710.0   64.1
 270   23:30   57.5    32    8.6   107     12.3   829.0    0.00       0    -14710.0   64.1
 270   23:40   57.8    32    9.0   104     12.1   829.0    0.00       0    -14710.0   72.1
 270   23:50   58.0    31    8.5   105     12.3   829.0    0.00       0    -14710.0   80.2
 271    0:00   57.9    31    7.1   107      9.1   828.0    0.00       0    -14710.0   80.2
 271    0:10   57.8    30    6.6   106      8.6   828.0    0.00       0    -14710.0   79.8
 271    0:20   58.1    30    7.7   106     10.4   828.0    0.00       0    -14710.0   72.6
 271    0:30   57.6    31    8.2   105     11.2   828.0    0.00       0    -14710.0   72.2
 271    0:40   57.6    30    7.9   109     10.5   828.0    0.00       0    -14710.0   79.8
 271    0:50   58.0    29    6.9   107      9.2   828.0    0.00       0    -14710.0   72.6
 271    1:00   58.0    29    7.4   108     10.4   828.0    0.00       0    -14710.0   80.3
 271    1:10   57.8    30    7.4   101     10.8   828.0    0.00       0    -14710.0   80.3
 271    1:20   56.6    31    6.1    98      8.1   828.0    0.00       0    -14710.0   80.3
 271    1:30   56.5    31    7.2   103      9.8   828.0    0.00       0    -14710.0   80.3
 271    1:40   56.8    30    7.6   103     10.4   828.0    0.00       0    -14710.0   80.3
 271    1:50   57.5    29    7.3   109     10.3   828.0    0.00       0    -14710.0   72.2
 271    2:00   58.2    28    7.1   107     10.9   828.0    0.00       0    -14710.0   80.3
 271    2:10   57.8    29    7.0   103     10.1   828.0    0.00       0    -14710.0   80.4
 271    2:20   57.6    29    6.3   103      9.2   828.0    0.00       0    -14710.0   80.3
 271    2:30   57.4    29    6.1    98      8.1   828.0    0.00       0    -14710.0   80.4
 271    2:40   57.5    29    5.9   103      9.1   828.0    0.00       0    -14710.0   80.3
 271    2:50   57.5    29    5.2    99      7.5   828.0    0.00       0    -14710.0   80.3
 271    3:00   57.9    28    5.0    89      6.6   827.0    0.00       0    -14710.0   80.3
 271    3:10   58.4    28    4.5    93      7.0   828.0    0.00       0    -14710.0   80.5
 271    3:20   58.3    28    4.4    90      7.3   827.0    0.00       0    -14710.0   80.5
 271    3:30   58.9    27    4.8   102      7.9   827.0    0.00       0    -14710.0   80.5
 271    3:40   58.4    27    5.0    93      7.5   827.0    0.00       0    -14710.0   80.4
 271    3:50   57.8    28    6.7   102     10.0   827.0    0.00       0    -14710.0   80.4
 271    4:00   58.2    27    6.5   109      9.2   827.0    0.00       0    -14710.0   80.4
 271    4:10   57.6    28    8.6   108     12.1   827.0    0.00       0    -14710.0   72.2
 271    4:20   57.2    28    9.8   109     14.0   827.0    0.00       0    -14710.0   64.2
 271    4:30   57.3    29    9.3   110     12.9   827.0    0.00       0    -14710.0   72.2
 271    4:40   56.3    30    9.0   113     12.2   827.0    0.00       0    -14710.0   72.2
 271    4:50   56.2    30   10.2   110     15.0   827.0    0.00       0    -14710.0   72.3
 271    5:00   56.2    30   10.4   112     14.0   827.0    0.00       0    -14710.0   72.2
 271    5:10   55.9    30   10.1   115     12.6   827.0    0.00       0    -14710.0   72.3
 271    5:20   56.0    30    9.6   112     13.6   827.0    0.00       0    -14710.0   72.2
 271    5:30   56.5    29    9.2   110     12.6   827.0    0.00       0    -14710.0   80.3
 271    5:40   55.9    30    9.3   110     13.3   827.0    0.00       0    -14710.0   71.8
 271    5:50   56.2    29    9.5   109     11.7   827.0    0.00       1    -14710.0   64.6
 271    6:00   56.6    28   10.1   107     13.8   827.0    0.00       2    -14710.0   72.3
 271    6:10   57.6    27   10.0   109     14.0   827.0    0.00       5    -14710.0   72.3
 271    6:20   57.3    28   10.4   110     14.3   827.0    0.00      21    -14710.0   72.2
 271    6:30   57.8    27   11.7   111     15.8   827.0    0.00      32    -14710.0   72.1
 271    6:40   58.7    27   11.0   108     14.4   827.0    0.00      45    -14710.0   71.8
 271    6:50   59.8    26   11.2   107     16.3   827.0    0.00      60    -14710.0   64.5
 271    7:00   60.4    26   10.7   104     13.4   827.0    0.00      76    -14710.0   72.2
 271    7:10   60.2    26   10.1   113     13.7   827.0    0.00      94    -14710.0   71.9
 271    7:20   60.9    25    9.6   113     13.0   827.0    0.00     113    -14710.0   64.5
 271    7:30   61.8    24    8.7   108     12.6   827.0    0.00     134    -14710.0   64.0
 271    7:40   63.2    24    7.5   111     11.0   827.0    0.00     154    -14710.0   80.1
 271    7:50   64.2    23    7.9   123     12.6   827.0    0.00     175    -14710.0   80.3
 271    8:00   64.7    22    6.8   124      9.8   827.0    0.00     197    -14710.0   80.2
 271    8:10   65.9    21    7.1   120     11.3   827.0    0.00     218    -14710.0   80.3
 271    8:20   67.1    20    6.9   123     10.0   827.0    0.00     238    -14710.0   80.2
 271    8:30   68.1    19    6.7   124      9.6   827.0    0.00     258    -14710.0   72.1
 271    8:40   69.4    17    6.6   127     10.0   827.0    0.00     277    -14710.0   80.3
 271    8:50   70.0    16    6.2   126      9.7   827.0    0.00     296    -14710.0   80.2
 271    9:00   72.0    14    2.8   133      7.2   827.0    0.00     314    -14710.0   80.2
 271    9:10   74.3    12    2.5   214      4.6   827.0    0.00     329    -14710.0   79.5
 271    9:20   77.9    11    2.4   249      6.1   827.0    0.00     343    -14710.0   72.1
 271    9:30   76.9    12    5.5   278     10.1   827.0    0.00     358    -14710.0   80.0
 271    9:40   75.1    14    4.5   291      8.3   827.0    0.00     374    -14710.0   80.1
 271    9:50   75.3    14    3.2   342      7.1   827.0    0.00     387    -14710.0   79.9
 271   10:00   75.4    14    4.1   298      7.5   827.0    0.00     399    -14710.0   80.0
 271   10:10   76.4    14    5.6   272      9.6   827.0    0.00     411    -14710.0   80.0
 271   10:20   76.7    14    5.3   285      9.9   827.0    0.00     422    -14710.0   80.0
 271   10:30   75.8    15    7.4   284     14.0   827.0    0.00     433    -14710.0   80.1
 271   10:40   76.4    14    8.7   265     14.8   826.0    0.00     443    -14710.0   80.2
 271   10:50   75.9    15   11.3   272     15.8   826.0    0.00     452    -14710.0   80.2
 271   11:00   75.1    15   12.4   279     17.1   826.0    0.00     461    -14710.0   80.3
 271   11:10   74.8    15   11.8   278     16.1   826.0    0.00     467    -14710.0   80.3
 271   11:20   75.0    16   11.4   275     17.5   826.0    0.00     471    -14710.0   80.3
 271   11:30   74.9    16   10.9   280     15.4   826.0    0.00     474    -14710.0   80.3
 271   11:40   74.8    18   13.2   278     17.2   826.0    0.00     477    -14710.0   80.2

Return to Cisco Butte graphs page.


Western Regional Climate Center,wrcc@dri.edu